createdAt,value
2024-05-09T00:01:56.732Z,8.51
2024-05-09T00:06:58.441Z,8.45
2024-05-09T00:12:00.286Z,8.23
2024-05-09T00:17:02.064Z,8.31
2024-05-09T00:22:04.062Z,8.31
2024-05-09T00:27:05.962Z,8.30
2024-05-09T00:32:07.969Z,8.25
2024-05-09T00:37:09.625Z,8.17
2024-05-09T00:42:11.346Z,8.06
2024-05-09T00:47:13.080Z,7.90
2024-05-09T00:52:14.780Z,7.75
2024-05-09T00:57:17.011Z,7.56
2024-05-09T01:02:18.908Z,7.36
2024-05-09T01:07:20.710Z,7.18
2024-05-09T01:12:22.622Z,7.06
2024-05-09T01:17:24.587Z,7.02
2024-05-09T01:22:28.024Z,7.00
2024-05-09T01:27:30.996Z,6.95
2024-05-09T01:32:32.805Z,6.90
2024-05-09T01:37:34.534Z,6.87
2024-05-09T01:42:36.368Z,6.92
2024-05-09T01:47:38.332Z,6.98
2024-05-09T01:52:40.164Z,7.01
2024-05-09T01:57:41.815Z,6.99
2024-05-09T02:02:46.392Z,6.92
2024-05-09T02:07:48.084Z,6.88
2024-05-09T02:12:49.784Z,6.84
2024-05-09T02:17:51.610Z,6.81
2024-05-09T02:22:53.583Z,6.75
2024-05-09T02:27:55.215Z,6.65
2024-05-09T02:32:57.035Z,6.54
2024-05-09T02:37:58.863Z,6.50
2024-05-09T02:43:00.993Z,6.45
2024-05-09T02:48:03.074Z,6.41
2024-05-09T02:53:05.313Z,6.33
2024-05-09T02:58:07.925Z,6.25
2024-05-09T03:03:12.537Z,6.16
2024-05-09T03:08:16.268Z,6.12
2024-05-09T03:13:17.922Z,6.08
2024-05-09T03:18:19.851Z,6.06
2024-05-09T03:23:21.729Z,5.74
2024-05-09T03:28:23.458Z,5.99
2024-05-09T03:33:25.340Z,5.93
2024-05-09T03:38:27.328Z,5.93
2024-05-09T03:43:29.000Z,5.98
2024-05-09T03:48:34.649Z,6.05
2024-05-09T03:53:36.404Z,6.04
2024-05-09T03:58:39.221Z,6.15
2024-05-09T04:03:41.214Z,6.26
2024-05-09T04:08:43.023Z,6.39
2024-05-09T04:13:44.770Z,6.55
2024-05-09T04:18:46.470Z,6.69
2024-05-09T04:23:48.197Z,6.85
2024-05-09T04:28:49.906Z,7.01
2024-05-09T04:33:51.760Z,7.22
2024-05-09T04:38:53.467Z,7.49
2024-05-09T04:43:55.335Z,7.78
2024-05-09T04:48:57.106Z,8.05
2024-05-09T04:53:58.782Z,8.30
2024-05-09T04:59:00.475Z,8.53
2024-05-09T05:04:02.489Z,8.74
2024-05-09T05:09:04.241Z,8.97
2024-05-09T05:14:05.928Z,9.22
2024-05-09T05:19:10.835Z,9.47
2024-05-09T05:24:13.561Z,9.70
2024-05-09T05:29:17.218Z,9.95
2024-05-09T05:34:20.250Z,10.19
2024-05-09T05:39:21.959Z,10.45
2024-05-09T05:44:25.224Z,10.71
2024-05-09T05:49:32.342Z,10.97
2024-05-09T05:54:34.131Z,11.23
2024-05-09T05:59:35.799Z,11.46
2024-05-09T06:04:37.486Z,11.64
2024-05-09T06:09:39.315Z,11.79
2024-05-09T06:14:40.956Z,11.88
2024-05-09T06:19:42.726Z,12.06
2024-05-09T06:24:44.507Z,12.21
2024-05-09T06:29:46.303Z,12.33
2024-05-09T06:34:48.132Z,12.38
2024-05-09T06:39:50.036Z,12.49
2024-05-09T06:44:51.663Z,12.57
2024-05-09T06:49:53.431Z,12.73
2024-05-09T06:54:55.181Z,12.89
2024-05-09T07:00:00.636Z,13.08
2024-05-09T07:05:02.655Z,13.30
2024-05-09T07:10:07.724Z,13.50
2024-05-09T07:15:09.784Z,13.73
2024-05-09T07:20:16.600Z,13.95
2024-05-09T07:25:24.971Z,14.16
2024-05-09T07:30:33.091Z,14.35
2024-05-09T07:35:36.402Z,14.56
2024-05-09T07:40:39.144Z,14.66
2024-05-09T07:45:50.481Z,14.88
2024-05-09T07:52:39.111Z,15.01
2024-05-09T07:56:18.628Z,15.03
2024-05-09T08:01:21.540Z,15.22
2024-05-09T08:06:25.286Z,15.46
2024-05-09T08:11:27.050Z,15.63
2024-05-09T08:16:28.921Z,15.70
2024-05-09T08:21:30.756Z,15.78
2024-05-09T08:26:32.592Z,15.86
2024-05-09T08:31:37.869Z,15.96
2024-05-09T08:36:40.632Z,16.08
2024-05-09T08:41:42.702Z,16.12
2024-05-09T08:46:47.705Z,16.18
2024-05-09T08:51:49.412Z,16.32
2024-05-09T08:56:51.301Z,16.47
2024-05-09T09:01:54.268Z,16.55
2024-05-09T09:06:58.399Z,16.56
2024-05-09T09:12:01.138Z,16.67
2024-05-09T09:17:15.896Z,16.71
2024-05-09T09:22:19.313Z,16.77
2024-05-09T09:27:21.994Z,16.97
2024-05-09T09:32:28.082Z,17.36
2024-05-09T09:37:32.646Z,17.69
2024-05-09T09:42:37.101Z,17.92
2024-05-09T09:47:41.226Z,18.22
2024-05-09T09:52:43.464Z,18.47
2024-05-09T09:57:45.989Z,18.87
2024-05-09T10:02:48.776Z,19.01
2024-05-09T10:07:52.178Z,19.01
2024-05-09T10:13:02.934Z,18.96
2024-05-09T10:18:06.458Z,18.97
2024-05-09T10:23:27.224Z,19.18
2024-05-09T10:28:30.312Z,19.49
2024-05-09T10:33:37.232Z,19.46
2024-05-09T10:38:40.225Z,19.47
2024-05-09T10:43:45.364Z,19.34
2024-05-09T10:48:48.529Z,19.26
2024-05-09T10:53:52.331Z,19.45
2024-05-09T10:58:57.432Z,19.61
2024-05-09T11:03:59.262Z,19.80
2024-05-09T11:09:01.027Z,19.99
2024-05-09T11:14:12.195Z,20.04
2024-05-09T11:19:14.539Z,19.96
2024-05-09T11:24:16.475Z,19.59
2024-05-09T11:29:19.577Z,19.54
2024-05-09T11:34:21.779Z,19.75
2024-05-09T11:39:23.530Z,19.88
2024-05-09T11:44:26.764Z,19.91
2024-05-09T11:49:28.405Z,19.95
2024-05-09T11:54:32.933Z,19.95
2024-05-09T11:59:34.870Z,20.03
2024-05-09T12:04:36.603Z,20.46
2024-05-09T12:09:38.449Z,21.01
2024-05-09T12:14:40.227Z,21.17
2024-05-09T12:19:41.951Z,21.19
2024-05-09T12:24:43.683Z,21.14
2024-05-09T12:29:47.392Z,21.13
2024-05-09T12:34:49.011Z,21.27
2024-05-09T12:39:50.811Z,21.38
2024-05-09T12:44:52.547Z,21.42
2024-05-09T12:49:54.406Z,21.24
2024-05-09T12:54:56.120Z,21.27
2024-05-09T12:59:58.045Z,21.31
2024-05-09T13:04:59.802Z,21.27
2024-05-09T13:10:02.237Z,21.36
2024-05-09T13:15:05.074Z,21.52
2024-05-09T13:20:11.868Z,21.70
2024-05-09T13:25:16.854Z,21.61
2024-05-09T13:30:26.367Z,21.49
2024-05-09T13:35:36.442Z,21.71
2024-05-09T13:40:38.317Z,22.02
2024-05-09T13:45:40.208Z,22.19
2024-05-09T13:50:42.134Z,22.49
2024-05-09T13:55:43.936Z,22.71
2024-05-09T14:00:48.931Z,22.73
2024-05-09T14:05:52.121Z,22.44
2024-05-09T14:10:54.598Z,22.26
2024-05-09T14:15:56.578Z,22.10
2024-05-09T14:20:58.516Z,21.92
2024-05-09T14:26:00.188Z,21.95
2024-05-09T14:31:01.944Z,21.74
2024-05-09T14:36:04.236Z,21.64
2024-05-09T14:41:07.769Z,21.53
2024-05-09T14:46:10.194Z,21.30
2024-05-09T14:51:11.823Z,21.04
2024-05-09T14:56:14.447Z,21.12
2024-05-09T15:01:16.814Z,21.37
2024-05-09T15:06:19.006Z,21.44
2024-05-09T15:11:20.915Z,21.54
2024-05-09T15:16:22.989Z,21.48
2024-05-09T15:21:24.758Z,21.02
2024-05-09T15:26:27.047Z,20.33
2024-05-09T15:31:29.704Z,19.84
2024-05-09T15:36:31.605Z,19.68
2024-05-09T15:41:33.322Z,19.63
2024-05-09T15:46:34.922Z,19.63
2024-05-09T15:51:36.786Z,19.66
2024-05-09T15:56:39.245Z,19.73
2024-05-09T16:01:41.007Z,19.80
2024-05-09T16:06:46.605Z,19.89
2024-05-09T16:11:48.370Z,20.03
2024-05-09T16:16:50.560Z,20.28
2024-05-09T16:21:52.600Z,20.41
2024-05-09T16:26:54.421Z,20.45
2024-05-09T16:31:56.889Z,20.59
2024-05-09T16:36:58.733Z,20.49
2024-05-09T16:42:00.472Z,20.32
2024-05-09T16:47:02.256Z,20.33
2024-05-09T16:52:04.225Z,20.35
2024-05-09T16:57:06.103Z,20.25
2024-05-09T17:02:09.614Z,20.03
2024-05-09T17:07:12.014Z,19.80
2024-05-09T17:12:13.800Z,19.47
2024-05-09T17:17:15.638Z,19.18
2024-05-09T17:22:17.422Z,18.86
2024-05-09T17:27:19.196Z,18.53
2024-05-09T17:32:20.847Z,18.26
2024-05-09T17:37:23.126Z,17.90
2024-05-09T17:42:24.794Z,17.60
2024-05-09T17:47:26.819Z,17.37
2024-05-09T17:52:28.732Z,17.16
2024-05-09T17:57:30.894Z,16.87
2024-05-09T18:02:33.217Z,16.53
2024-05-09T18:07:35.162Z,16.21
2024-05-09T18:12:36.837Z,15.90
2024-05-09T18:17:38.637Z,15.60
2024-05-09T18:22:40.412Z,15.31
2024-05-09T18:27:42.143Z,15.01
2024-05-09T18:32:44.220Z,14.76
2024-05-09T18:37:46.209Z,14.53
2024-05-09T18:42:47.806Z,14.31
2024-05-09T18:47:49.690Z,14.11
2024-05-09T18:52:51.342Z,13.97
2024-05-09T18:57:52.928Z,13.84
2024-05-09T19:02:54.861Z,13.75
2024-05-09T19:07:57.233Z,13.62
2024-05-09T19:12:59.019Z,13.54
2024-05-09T19:18:00.856Z,13.46
2024-05-09T19:23:02.792Z,13.36
2024-05-09T19:28:05.575Z,13.30
2024-05-09T19:33:08.756Z,13.18
2024-05-09T19:38:11.576Z,13.03
2024-05-09T19:43:13.359Z,12.81
2024-05-09T19:48:15.638Z,12.63
2024-05-09T19:53:17.549Z,12.47
2024-05-09T19:58:20.671Z,12.25
2024-05-09T20:03:22.660Z,11.99
2024-05-09T20:08:24.468Z,11.76
2024-05-09T20:13:26.120Z,11.55
2024-05-09T20:18:27.898Z,11.35
2024-05-09T20:23:29.852Z,11.15
2024-05-09T20:28:31.512Z,11.00
2024-05-09T20:33:33.435Z,10.80
2024-05-09T20:38:35.360Z,10.57
2024-05-09T20:43:36.971Z,10.35
2024-05-09T20:48:38.845Z,10.16
2024-05-09T20:53:40.630Z,9.98
2024-05-09T20:58:42.499Z,9.80
2024-05-09T21:03:44.240Z,9.58
2024-05-09T21:08:46.432Z,9.37
2024-05-09T21:13:50.219Z,9.20
2024-05-09T21:18:51.978Z,9.04
2024-05-09T21:23:55.967Z,8.88
2024-05-09T21:28:57.654Z,8.76
2024-05-09T21:33:59.622Z,8.67
2024-05-09T21:39:01.480Z,8.59
2024-05-09T21:44:06.027Z,8.62
2024-05-09T21:49:07.826Z,8.67
2024-05-09T21:54:09.563Z,8.74
2024-05-09T21:59:11.378Z,8.80
2024-05-09T22:04:13.354Z,8.80
2024-05-09T22:09:15.071Z,8.76
2024-05-09T22:14:16.758Z,8.70
2024-05-09T22:19:18.745Z,8.62
2024-05-09T22:24:20.593Z,8.53
2024-05-09T22:29:22.266Z,8.43
2024-05-09T22:34:24.052Z,8.33
2024-05-09T22:39:26.126Z,8.20
2024-05-09T22:44:27.807Z,8.07
2024-05-09T22:49:29.624Z,7.89
2024-05-09T22:54:31.466Z,7.71
2024-05-09T22:59:33.415Z,7.51
2024-05-09T23:04:35.258Z,7.36
2024-05-09T23:09:37.186Z,7.28
2024-05-09T23:14:39.049Z,7.25
2024-05-09T23:19:40.820Z,7.20
2024-05-09T23:24:47.887Z,7.12
2024-05-09T23:29:49.607Z,7.02
2024-05-09T23:34:51.386Z,6.88
2024-05-09T23:39:54.625Z,6.72
2024-05-09T23:44:58.465Z,6.57
2024-05-09T23:50:00.195Z,6.47
2024-05-09T23:55:01.885Z,6.42
